sensor_id;sensor_type;location;lat;lon;timestamp;pressure;altitude;pressure_sealevel;temperature;humidity
72438;BME280;60444;43.534;-5.674;2022-12-24T00:01:22;101914.28;;;14.11;100.00
72438;BME280;60444;43.534;-5.674;2022-12-24T00:03:48;101912.22;;;14.16;100.00
72438;BME280;60444;43.534;-5.674;2022-12-24T00:06:19;101901.50;;;14.13;100.00
72438;BME280;60444;43.534;-5.674;2022-12-24T00:08:44;101910.41;;;14.17;100.00
72438;BME280;60444;43.534;-5.674;2022-12-24T00:11:10;101900.69;;;14.11;100.00
72438;BME280;60444;43.534;-5.674;2022-12-24T00:13:36;101897.00;;;14.12;100.00
72438;BME280;60444;43.534;-5.674;2022-12-24T00:16:01;101903.19;;;14.16;100.00
72438;BME280;60444;43.534;-5.674;2022-12-24T00:18:27;101889.81;;;14.11;100.00
72438;BME280;60444;43.534;-5.674;2022-12-24T00:20:53;101876.31;;;14.08;100.00
72438;BME280;60444;43.534;-5.674;2022-12-24T00:23:19;101878.09;;;14.09;100.00
72438;BME280;60444;43.534;-5.674;2022-12-24T00:25:45;101885.19;;;14.13;100.00
72438;BME280;60444;43.534;-5.674;2022-12-24T00:28:11;101882.88;;;14.04;100.00
72438;BME280;60444;43.534;-5.674;2022-12-24T00:30:38;101887.19;;;14.08;100.00
72438;BME280;60444;43.534;-5.674;2022-12-24T00:33:04;101870.28;;;14.02;100.00
72438;BME280;60444;43.534;-5.674;2022-12-24T00:35:35;101868.31;;;14.05;100.00
72438;BME280;60444;43.534;-5.674;2022-12-24T00:38:01;101875.81;;;14.00;100.00
72438;BME280;60444;43.534;-5.674;2022-12-24T00:40:28;101878.38;;;14.03;100.00
72438;BME280;60444;43.534;-5.674;2022-12-24T00:42:57;101871.19;;;14.02;100.00
72438;BME280;60444;43.534;-5.674;2022-12-24T00:45:23;101873.81;;;14.04;100.00
72438;BME280;60444;43.534;-5.674;2022-12-24T00:47:49;101871.25;;;14.01;100.00
72438;BME280;60444;43.534;-5.674;2022-12-24T00:50:14;101852.41;;;13.96;100.00
72438;BME280;60444;43.534;-5.674;2022-12-24T00:52:40;101860.38;;;14.01;100.00
72438;BME280;60444;43.534;-5.674;2022-12-24T00:55:06;101853.16;;;14.00;100.00
72438;BME280;60444;43.534;-5.674;2022-12-24T00:57:32;101847.13;;;13.93;100.00
72438;BME280;60444;43.534;-5.674;2022-12-24T00:59:58;101853.16;;;14.00;100.00
72438;BME280;60444;43.534;-5.674;2022-12-24T01:02:23;101830.94;;;13.90;100.00
72438;BME280;60444;43.534;-5.674;2022-12-24T01:04:49;101851.44;;;13.97;100.00
72438;BME280;60444;43.534;-5.674;2022-12-24T01:07:33;101820.94;;;13.91;100.00
72438;BME280;60444;43.534;-5.674;2022-12-24T01:09:59;101801.16;;;13.87;100.00
72438;BME280;60444;43.534;-5.674;2022-12-24T01:12:24;101803.72;;;13.90;100.00
72438;BME280;60444;43.534;-5.674;2022-12-24T01:14:50;101801.91;;;13.91;100.00
72438;BME280;60444;43.534;-5.674;2022-12-24T01:17:15;101790.13;;;13.90;100.00
72438;BME280;60444;43.534;-5.674;2022-12-24T01:19:41;101812.50;;;13.97;100.00
72438;BME280;60444;43.534;-5.674;2022-12-24T01:22:07;101808.81;;;13.98;100.00
72438;BME280;60444;43.534;-5.674;2022-12-24T01:24:32;101814.34;;;13.96;100.00
72438;BME280;60444;43.534;-5.674;2022-12-24T01:26:58;101799.09;;;13.92;100.00
72438;BME280;60444;43.534;-5.674;2022-12-24T01:29:23;101802.63;;;13.94;100.00
72438;BME280;60444;43.534;-5.674;2022-12-24T01:31:49;101794.63;;;13.91;100.00
72438;BME280;60444;43.534;-5.674;2022-12-24T01:34:14;101786.75;;;13.85;100.00
72438;BME280;60444;43.534;-5.674;2022-12-24T01:36:40;101790.94;;;13.92;100.00
72438;BME280;60444;43.534;-5.674;2022-12-24T01:39:06;101778.47;;;13.88;100.00
72438;BME280;60444;43.534;-5.674;2022-12-24T01:41:32;101798.00;;;13.96;100.00
72438;BME280;60444;43.534;-5.674;2022-12-24T01:44:27;101796.25;;;13.95;100.00
72438;BME280;60444;43.534;-5.674;2022-12-24T01:47:16;101779.19;;;13.92;100.00
72438;BME280;60444;43.534;-5.674;2022-12-24T01:49:58;101780.22;;;13.89;100.00
72438;BME280;60444;43.534;-5.674;2022-12-24T01:52:30;101795.22;;;13.98;100.00
72438;BME280;60444;43.534;-5.674;2022-12-24T01:55:09;101779.94;;;13.95;100.00
72438;BME280;60444;43.534;-5.674;2022-12-24T01:57:56;101768.09;;;13.96;100.00
72438;BME280;60444;43.534;-5.674;2022-12-24T02:00:23;101745.13;;;13.83;100.00
72438;BME280;60444;43.534;-5.674;2022-12-24T02:02:50;101758.47;;;13.89;100.00
72438;BME280;60444;43.534;-5.674;2022-12-24T02:05:33;101770.81;;;13.96;100.00
72438;BME280;60444;43.534;-5.674;2022-12-24T02:08:03;101770.16;;;13.91;100.00
72438;BME280;60444;43.534;-5.674;2022-12-24T02:10:29;101779.94;;;13.95;100.00
72438;BME280;60444;43.534;-5.674;2022-12-24T02:12:56;101764.78;;;13.90;100.00
72438;BME280;60444;43.534;-5.674;2022-12-24T02:15:22;101777.41;;;13.91;100.00
72438;BME280;60444;43.534;-5.674;2022-12-24T02:18:25;101790.66;;;13.98;100.00
72438;BME280;60444;43.534;-5.674;2022-12-24T02:27:24;101771.16;;;13.89;100.00
72438;BME280;60444;43.534;-5.674;2022-12-24T02:32:44;101767.88;;;13.82;100.00
72438;BME280;60444;43.534;-5.674;2022-12-24T02:35:14;101773.31;;;13.82;100.00
72438;BME280;60444;43.534;-5.674;2022-12-24T02:37:46;101771.53;;;13.81;100.00
72438;BME280;60444;43.534;-5.674;2022-12-24T02:40:22;101761.78;;;13.77;100.00
72438;BME280;60444;43.534;-5.674;2022-12-24T02:42:54;101761.63;;;13.80;100.00
72438;BME280;60444;43.534;-5.674;2022-12-24T02:45:25;101756.09;;;13.82;100.00
72438;BME280;60444;43.534;-5.674;2022-12-24T02:47:54;101746.53;;;13.73;100.00
72438;BME280;60444;43.534;-5.674;2022-12-24T02:50:21;101747.34;;;13.75;100.00
72438;BME280;60444;43.534;-5.674;2022-12-24T02:52:47;101758.91;;;13.80;100.00
72438;BME280;60444;43.534;-5.674;2022-12-24T03:00:26;101740.81;;;13.79;100.00
72438;BME280;60444;43.534;-5.674;2022-12-24T03:05:50;101722.81;;;13.77;100.00
72438;BME280;60444;43.534;-5.674;2022-12-24T03:11:07;101715.31;;;13.82;100.00
72438;BME280;60444;43.534;-5.674;2022-12-24T03:13:34;101699.28;;;13.76;100.00
72438;BME280;60444;43.534;-5.674;2022-12-24T03:16:03;101710.97;;;13.78;100.00
72438;BME280;60444;43.534;-5.674;2022-12-24T03:18:30;101703.63;;;13.80;100.00
72438;BME280;60444;43.534;-5.674;2022-12-24T03:21:16;101699.44;;;13.73;100.00
72438;BME280;60444;43.534;-5.674;2022-12-24T03:23:44;101695.03;;;13.70;100.00
72438;BME280;60444;43.534;-5.674;2022-12-24T03:26:11;101684.22;;;13.69;100.00
72438;BME280;60444;43.534;-5.674;2022-12-24T03:28:39;101688.63;;;13.71;100.00
72438;BME280;60444;43.534;-5.674;2022-12-24T03:31:07;101696.63;;;13.74;100.00
72438;BME280;60444;43.534;-5.674;2022-12-24T03:33:33;101689.66;;;13.69;100.00
72438;BME280;60444;43.534;-5.674;2022-12-24T03:35:59;101693.50;;;13.65;100.00
72438;BME280;60444;43.534;-5.674;2022-12-24T03:38:25;101685.53;;;13.60;100.00
72438;BME280;60444;43.534;-5.674;2022-12-24T03:40:50;101673.94;;;13.57;100.00
72438;BME280;60444;43.534;-5.674;2022-12-24T03:43:16;101662.16;;;13.56;100.00
72438;BME280;60444;43.534;-5.674;2022-12-24T03:45:42;101659.88;;;13.47;100.00
72438;BME280;60444;43.534;-5.674;2022-12-24T03:48:07;101676.19;;;13.47;100.00
72438;BME280;60444;43.534;-5.674;2022-12-24T03:50:33;101672.63;;;13.46;100.00
72438;BME280;60444;43.534;-5.674;2022-12-24T03:52:58;101664.81;;;13.39;100.00
72438;BME280;60444;43.534;-5.674;2022-12-24T03:55:24;101692.56;;;13.45;100.00
72438;BME280;60444;43.534;-5.674;2022-12-24T03:57:49;101680.97;;;13.42;100.00
72438;BME280;60444;43.534;-5.674;2022-12-24T04:00:15;101671.06;;;13.41;100.00
72438;BME280;60444;43.534;-5.674;2022-12-24T04:02:41;101681.84;;;13.42;100.00
72438;BME280;60444;43.534;-5.674;2022-12-24T04:05:07;101678.25;;;13.42;100.00
72438;BME280;60444;43.534;-5.674;2022-12-24T04:07:33;101667.53;;;13.39;100.00
72438;BME280;60444;43.534;-5.674;2022-12-24T04:09:59;101671.19;;;13.38;100.00
72438;BME280;60444;43.534;-5.674;2022-12-24T04:12:24;101659.47;;;13.37;100.00
72438;BME280;60444;43.534;-5.674;2022-12-24T04:14:50;101670.69;;;13.48;100.00
72438;BME280;60444;43.534;-5.674;2022-12-24T04:17:15;101654.44;;;13.47;100.00
72438;BME280;60444;43.534;-5.674;2022-12-24T04:19:41;101641.66;;;13.49;100.00
72438;BME280;60444;43.534;-5.674;2022-12-24T04:22:07;101646.75;;;13.57;100.00
72438;BME280;60444;43.534;-5.674;2022-12-24T04:24:32;101631.53;;;13.52;100.00
72438;BME280;60444;43.534;-5.674;2022-12-24T04:26:58;101605.16;;;13.54;100.00
72438;BME280;60444;43.534;-5.674;2022-12-24T04:29:24;101611.31;;;13.58;100.00
72438;BME280;60444;43.534;-5.674;2022-12-24T04:31:49;101611.50;;;13.55;100.00
72438;BME280;60444;43.534;-5.674;2022-12-24T04:34:15;101625.44;;;13.66;100.00
72438;BME280;60444;43.534;-5.674;2022-12-24T04:36:40;101602.25;;;13.59;100.00
72438;BME280;60444;43.534;-5.674;2022-12-24T04:39:06;101593.09;;;13.60;100.00
72438;BME280;60444;43.534;-5.674;2022-12-24T04:41:31;101592.91;;;13.65;100.00
72438;BME280;60444;43.534;-5.674;2022-12-24T04:43:57;101585.75;;;13.62;100.00
72438;BME280;60444;43.534;-5.674;2022-12-24T04:46:25;101587.66;;;13.60;100.00
72438;BME280;60444;43.534;-5.674;2022-12-24T04:48:52;101586.72;;;13.61;100.00
72438;BME280;60444;43.534;-5.674;2022-12-24T04:51:19;101590.91;;;13.68;100.00
72438;BME280;60444;43.534;-5.674;2022-12-24T04:53:45;101588.47;;;13.62;100.00
72438;BME280;60444;43.534;-5.674;2022-12-24T04:56:13;101610.81;;;13.69;100.00
72438;BME280;60444;43.534;-5.674;2022-12-24T04:58:39;101597.66;;;13.60;100.00
72438;BME280;60444;43.534;-5.674;2022-12-24T05:01:10;101592.66;;;13.69;100.00
72438;BME280;60444;43.534;-5.674;2022-12-24T05:03:36;101575.06;;;13.59;100.00
72438;BME280;60444;43.534;-5.674;2022-12-24T05:06:09;101598.75;;;13.74;100.00
72438;BME280;60444;43.534;-5.674;2022-12-24T05:08:37;101592.44;;;13.74;100.00
72438;BME280;60444;43.534;-5.674;2022-12-24T05:11:03;101599.88;;;13.70;100.00
72438;BME280;60444;43.534;-5.674;2022-12-24T05:13:29;101601.47;;;13.74;100.00
72438;BME280;60444;43.534;-5.674;2022-12-24T05:15:55;101597.94;;;13.72;100.00
72438;BME280;60444;43.534;-5.674;2022-12-24T05:18:21;101599.72;;;13.73;100.00
72438;BME280;60444;43.534;-5.674;2022-12-24T05:20:47;101596.03;;;13.74;100.00
72438;BME280;60444;43.534;-5.674;2022-12-24T05:23:18;101585.16;;;13.74;100.00
72438;BME280;60444;43.534;-5.674;2022-12-24T05:26:04;101596.91;;;13.75;100.00
72438;BME280;60444;43.534;-5.674;2022-12-24T05:28:46;101579.22;;;13.66;100.00
72438;BME280;60444;43.534;-5.674;2022-12-24T05:31:12;101580.88;;;13.69;100.00
72438;BME280;60444;43.534;-5.674;2022-12-24T05:33:38;101559.47;;;13.63;100.00
72438;BME280;60444;43.534;-5.674;2022-12-24T05:36:03;101560.41;;;13.62;100.00
72438;BME280;60444;43.534;-5.674;2022-12-24T05:38:29;101560.28;;;13.65;100.00
72438;BME280;60444;43.534;-5.674;2022-12-24T05:40:55;101562.66;;;13.71;100.00
72438;BME280;60444;43.534;-5.674;2022-12-24T05:43:20;101559.09;;;13.70;100.00
72438;BME280;60444;43.534;-5.674;2022-12-24T05:45:46;101540.19;;;13.67;100.00
72438;BME280;60444;43.534;-5.674;2022-12-24T05:48:11;101559.88;;;13.72;100.00
72438;BME280;60444;43.534;-5.674;2022-12-24T05:50:40;101526.94;;;13.61;100.00
72438;BME280;60444;43.534;-5.674;2022-12-24T05:53:06;101545.53;;;13.69;100.00
72438;BME280;60444;43.534;-5.674;2022-12-24T05:55:32;101536.38;;;13.71;100.00
72438;BME280;60444;43.534;-5.674;2022-12-24T05:57:58;101527.25;;;13.72;100.00
72438;BME280;60444;43.534;-5.674;2022-12-24T06:00:24;101523.50;;;13.75;100.00
72438;BME280;60444;43.534;-5.674;2022-12-24T06:02:49;101510.00;;;13.73;100.00
72438;BME280;60444;43.534;-5.674;2022-12-24T06:05:15;101506.53;;;13.70;100.00
72438;BME280;60444;43.534;-5.674;2022-12-24T06:07:41;101501.19;;;13.68;100.00
72438;BME280;60444;43.534;-5.674;2022-12-24T06:10:07;101475.75;;;13.52;100.00
72438;BME280;60444;43.534;-5.674;2022-12-24T06:12:33;101488.91;;;13.60;100.00
72438;BME280;60444;43.534;-5.674;2022-12-24T06:14:59;101494.94;;;13.66;100.00
72438;BME280;60444;43.534;-5.674;2022-12-24T06:17:24;101463.81;;;13.54;100.00
72438;BME280;60444;43.534;-5.674;2022-12-24T06:19:50;101462.88;;;13.56;100.00
72438;BME280;60444;43.534;-5.674;2022-12-24T06:22:15;101468.38;;;13.54;100.00
72438;BME280;60444;43.534;-5.674;2022-12-24T06:24:41;101478.38;;;13.53;100.00
72438;BME280;60444;43.534;-5.674;2022-12-24T06:27:07;101469.50;;;13.50;100.00
72438;BME280;60444;43.534;-5.674;2022-12-24T06:29:32;101470.59;;;13.46;100.00
72438;BME280;60444;43.534;-5.674;2022-12-24T06:31:58;101487.72;;;13.48;100.00
72438;BME280;60444;43.534;-5.674;2022-12-24T06:34:23;101490.44;;;13.48;100.00
72438;BME280;60444;43.534;-5.674;2022-12-24T06:36:49;101480.84;;;13.41;100.00
72438;BME280;60444;43.534;-5.674;2022-12-24T06:39:14;101493.38;;;13.43;100.00
72438;BME280;60444;43.534;-5.674;2022-12-24T06:41:40;101468.44;;;13.35;100.00
72438;BME280;60444;43.534;-5.674;2022-12-24T06:44:05;101468.56;;;13.32;100.00
72438;BME280;60444;43.534;-5.674;2022-12-24T06:46:31;101476.50;;;13.37;100.00
72438;BME280;60444;43.534;-5.674;2022-12-24T06:48:56;101494.41;;;13.41;100.00
72438;BME280;60444;43.534;-5.674;2022-12-24T06:51:22;101484.50;;;13.40;100.00
72438;BME280;60444;43.534;-5.674;2022-12-24T06:53:48;101474.16;;;13.29;100.00
72438;BME280;60444;43.534;-5.674;2022-12-24T06:56:15;101474.81;;;13.34;100.00
72438;BME280;60444;43.534;-5.674;2022-12-24T06:58:40;101486.66;;;13.33;100.00
72438;BME280;60444;43.534;-5.674;2022-12-24T07:01:09;101462.72;;;13.23;100.00
72438;BME280;60444;43.534;-5.674;2022-12-24T07:03:35;101455.69;;;13.19;100.00
72438;BME280;60444;43.534;-5.674;2022-12-24T07:06:01;101466.38;;;13.22;100.00
72438;BME280;60444;43.534;-5.674;2022-12-24T07:08:27;101461.19;;;13.17;100.00
72438;BME280;60444;43.534;-5.674;2022-12-24T07:10:52;101454.22;;;13.12;100.00
72438;BME280;60444;43.534;-5.674;2022-12-24T07:13:18;101451.63;;;13.09;100.00
72438;BME280;60444;43.534;-5.674;2022-12-24T07:15:44;101467.88;;;13.10;100.00
72438;BME280;60444;43.534;-5.674;2022-12-24T07:18:10;101461.28;;;13.16;100.00
72438;BME280;60444;43.534;-5.674;2022-12-24T07:20:38;101457.88;;;13.11;100.00
72438;BME280;60444;43.534;-5.674;2022-12-24T07:23:04;101459.72;;;13.10;100.00
72438;BME280;60444;43.534;-5.674;2022-12-24T07:25:29;101469.47;;;13.14;100.00
72438;BME280;60444;43.534;-5.674;2022-12-24T07:27:55;101463.56;;;13.06;100.00
72438;BME280;60444;43.534;-5.674;2022-12-24T07:30:21;101470.59;;;13.10;100.00
72438;BME280;60444;43.534;-5.674;2022-12-24T07:32:46;101459.00;;;13.07;100.00
72438;BME280;60444;43.534;-5.674;2022-12-24T07:35:12;101461.56;;;13.10;100.00
72438;BME280;60444;43.534;-5.674;2022-12-24T07:37:37;101436.56;;;13.02;100.00
72438;BME280;60444;43.534;-5.674;2022-12-24T07:40:03;101429.84;;;12.92;100.00
72438;BME280;60444;43.534;-5.674;2022-12-24T07:42:32;101441.25;;;12.98;100.00
72438;BME280;60444;43.534;-5.674;2022-12-24T07:44:57;101453.03;;;12.99;100.00
72438;BME280;60444;43.534;-5.674;2022-12-24T07:47:23;101451.72;;;12.89;100.00
72438;BME280;60444;43.534;-5.674;2022-12-24T07:49:48;101450.66;;;12.91;100.00
72438;BME280;60444;43.534;-5.674;2022-12-24T07:52:14;101428.22;;;12.88;100.00
72438;BME280;60444;43.534;-5.674;2022-12-24T07:54:40;101400.50;;;12.63;100.00
72438;BME280;60444;43.534;-5.674;2022-12-24T07:57:05;101439.06;;;12.88;100.00
72438;BME280;60444;43.534;-5.674;2022-12-24T07:59:31;101437.53;;;12.82;100.00
72438;BME280;60444;43.534;-5.674;2022-12-24T08:01:56;101434.75;;;12.84;100.00
72438;BME280;60444;43.534;-5.674;2022-12-24T08:04:22;101428.53;;;12.82;100.00
72438;BME280;60444;43.534;-5.674;2022-12-24T08:06:47;101442.25;;;12.79;100.00
72438;BME280;60444;43.534;-5.674;2022-12-24T08:09:13;101434.44;;;12.71;100.00
72438;BME280;60444;43.534;-5.674;2022-12-24T08:11:39;101441.44;;;12.77;100.00
72438;BME280;60444;43.534;-5.674;2022-12-24T08:14:05;101434.69;;;12.67;100.00
72438;BME280;60444;43.534;-5.674;2022-12-24T08:16:30;101431.00;;;12.68;100.00
72438;BME280;60444;43.534;-5.674;2022-12-24T08:18:56;101428.00;;;12.74;100.00
72438;BME280;60444;43.534;-5.674;2022-12-24T08:21:24;101432.78;;;12.69;100.00
72438;BME280;60444;43.534;-5.674;2022-12-24T08:23:50;101398.16;;;12.55;100.00
72438;BME280;60444;43.534;-5.674;2022-12-24T08:26:15;101412.00;;;12.68;100.00
72438;BME280;60444;43.534;-5.674;2022-12-24T08:28:41;101406.09;;;12.60;100.00
72438;BME280;60444;43.534;-5.674;2022-12-24T08:31:06;101415.16;;;12.59;100.00
72438;BME280;60444;43.534;-5.674;2022-12-24T08:33:32;101402.41;;;12.61;100.00
72438;BME280;60444;43.534;-5.674;2022-12-24T08:35:59;101420.97;;;12.70;100.00
72438;BME280;60444;43.534;-5.674;2022-12-24T08:38:25;101414.31;;;12.58;100.00
72438;BME280;60444;43.534;-5.674;2022-12-24T08:40:52;101426.47;;;12.68;100.00
72438;BME280;60444;43.534;-5.674;2022-12-24T08:43:18;101417.78;;;12.60;100.00
72438;BME280;60444;43.534;-5.674;2022-12-24T08:45:45;101428.53;;;12.63;100.00
72438;BME280;60444;43.534;-5.674;2022-12-24T08:48:12;101430.06;;;12.69;100.00
72438;BME280;60444;43.534;-5.674;2022-12-24T08:50:39;101409.97;;;12.54;100.00
72438;BME280;60444;43.534;-5.674;2022-12-24T08:53:05;101403.88;;;12.49;100.00
72438;BME280;60444;43.534;-5.674;2022-12-24T08:55:30;101426.72;;;12.64;100.00
72438;BME280;60444;43.534;-5.674;2022-12-24T08:57:56;101424.13;;;12.61;100.00
72438;BME280;60444;43.534;-5.674;2022-12-24T09:00:22;101427.56;;;12.64;100.00
72438;BME280;60444;43.534;-5.674;2022-12-24T09:02:48;101436.16;;;12.74;100.00
72438;BME280;60444;43.534;-5.674;2022-12-24T09:05:13;101421.31;;;12.62;100.00
72438;BME280;60444;43.534;-5.674;2022-12-24T09:07:39;101412.38;;;12.60;100.00
72438;BME280;60444;43.534;-5.674;2022-12-24T09:10:05;101432.63;;;12.72;100.00
72438;BME280;60444;43.534;-5.674;2022-12-24T09:12:31;101432.47;;;12.75;100.00
72438;BME280;60444;43.534;-5.674;2022-12-24T09:14:59;101426.25;;;12.73;100.00
72438;BME280;60444;43.534;-5.674;2022-12-24T09:17:24;101422.34;;;12.78;100.00
72438;BME280;60444;43.534;-5.674;2022-12-24T09:19:50;101446.41;;;12.86;100.00
72438;BME280;60444;43.534;-5.674;2022-12-24T09:22:15;101453.53;;;12.88;100.00
72438;BME280;60444;43.534;-5.674;2022-12-24T09:24:41;101438.34;;;12.84;100.00
72438;BME280;60444;43.534;-5.674;2022-12-24T09:27:06;101460.16;;;13.01;100.00
72438;BME280;60444;43.534;-5.674;2022-12-24T09:29:32;101462.44;;;13.10;100.00
72438;BME280;60444;43.534;-5.674;2022-12-24T09:31:58;101461.56;;;13.10;100.00
72438;BME280;60444;43.534;-5.674;2022-12-24T09:34:24;101464.75;;;13.18;100.00
72438;BME280;60444;43.534;-5.674;2022-12-24T09:36:50;101453.84;;;13.19;100.00
72438;BME280;60444;43.534;-5.674;2022-12-24T09:39:19;101470.25;;;13.35;100.00
72438;BME280;60444;43.534;-5.674;2022-12-24T09:44:45;101457.09;;;13.44;100.00
72438;BME280;60444;43.534;-5.674;2022-12-24T09:49:51;101467.50;;;13.53;100.00
72438;BME280;60444;43.534;-5.674;2022-12-24T09:52:39;101482.47;;;13.62;100.00
72438;BME280;60444;43.534;-5.674;2022-12-24T09:55:42;101494.78;;;13.69;100.00
72438;BME280;60444;43.534;-5.674;2022-12-24T09:58:22;101476.38;;;13.57;100.00
72438;BME280;60444;43.534;-5.674;2022-12-24T10:00:50;101503.75;;;13.71;100.00
72438;BME280;60444;43.534;-5.674;2022-12-24T10:03:16;101513.13;;;13.83;100.00
72438;BME280;60444;43.534;-5.674;2022-12-24T10:09:07;101526.38;;;13.89;100.00
72438;BME280;60444;43.534;-5.674;2022-12-24T10:17:21;101525.69;;;14.02;100.00
72438;BME280;60444;43.534;-5.674;2022-12-24T10:22:47;101538.91;;;14.10;100.00
72438;BME280;60444;43.534;-5.674;2022-12-24T10:25:47;101537.69;;;14.15;100.00
72438;BME280;60444;43.534;-5.674;2022-12-24T10:28:17;101534.72;;;14.20;100.00
72438;BME280;60444;43.534;-5.674;2022-12-24T10:30:46;101519.03;;;14.25;100.00
72438;BME280;60444;43.534;-5.674;2022-12-24T10:33:35;101515.44;;;14.24;100.00
72438;BME280;60444;43.534;-5.674;2022-12-24T10:36:02;101542.50;;;14.44;100.00
72438;BME280;60444;43.534;-5.674;2022-12-24T10:38:29;101542.38;;;14.47;100.00
72438;BME280;60444;43.534;-5.674;2022-12-24T10:40:58;101535.00;;;14.49;100.00
72438;BME280;60444;43.534;-5.674;2022-12-24T10:43:27;101547.31;;;14.57;100.00
72438;BME280;60444;43.534;-5.674;2022-12-24T10:46:06;101559.72;;;14.62;100.00
72438;BME280;60444;43.534;-5.674;2022-12-24T10:48:41;101562.19;;;14.67;100.00
72438;BME280;60444;43.534;-5.674;2022-12-24T10:54:16;101558.25;;;14.72;100.00
72438;BME280;60444;43.534;-5.674;2022-12-24T10:56:48;101566.00;;;14.80;100.00
72438;BME280;60444;43.534;-5.674;2022-12-24T11:02:33;101557.34;;;14.89;100.00
72438;BME280;60444;43.534;-5.674;2022-12-24T11:05:00;101576.53;;;15.03;100.00
72438;BME280;60444;43.534;-5.674;2022-12-24T11:07:27;101566.66;;;15.00;100.00
72438;BME280;60444;43.534;-5.674;2022-12-24T11:09:57;101572.31;;;15.13;100.00
72438;BME280;60444;43.534;-5.674;2022-12-24T11:12:36;101579.03;;;15.23;100.00
72438;BME280;60444;43.534;-5.674;2022-12-24T11:17:32;101565.81;;;15.31;100.00
72438;BME280;60444;43.534;-5.674;2022-12-24T11:20:00;101580.31;;;15.48;100.00
72438;BME280;60444;43.534;-5.674;2022-12-24T11:22:30;101575.47;;;15.53;100.00
72438;BME280;60444;43.534;-5.674;2022-12-24T11:27:44;101580.41;;;15.63;100.00
72438;BME280;60444;43.534;-5.674;2022-12-24T11:32:39;101576.44;;;15.68;100.00
72438;BME280;60444;43.534;-5.674;2022-12-24T11:35:14;101561.56;;;15.58;100.00
72438;BME280;60444;43.534;-5.674;2022-12-24T11:37:40;101577.06;;;15.73;100.00
72438;BME280;60444;43.534;-5.674;2022-12-24T11:40:18;101580.56;;;15.75;100.00
72438;BME280;60444;43.534;-5.674;2022-12-24T11:42:45;101579.44;;;15.79;100.00
72438;BME280;60444;43.534;-5.674;2022-12-24T11:45:23;101565.78;;;15.79;100.00
72438;BME280;60444;43.534;-5.674;2022-12-24T11:47:50;101551.97;;;15.82;100.00
72438;BME280;60444;43.534;-5.674;2022-12-24T11:50:29;101546.31;;;15.85;100.00
72438;BME280;60444;43.534;-5.674;2022-12-24T11:53:12;101540.69;;;15.88;100.00
72438;BME280;60444;43.534;-5.674;2022-12-24T11:55:49;101543.13;;;15.93;100.00
72438;BME280;60444;43.534;-5.674;2022-12-24T12:00:46;101525.97;;;16.06;100.00
72438;BME280;60444;43.534;-5.674;2022-12-24T12:03:34;101512.63;;;16.16;100.00
72438;BME280;60444;43.534;-5.674;2022-12-24T12:06:05;101506.19;;;16.17;100.00
72438;BME280;60444;43.534;-5.674;2022-12-24T12:08:32;101514.41;;;16.31;100.00
72438;BME280;60444;43.534;-5.674;2022-12-24T12:10:58;101509.75;;;16.33;100.00
72438;BME280;60444;43.534;-5.674;2022-12-24T12:13:31;101503.97;;;16.37;100.00
72438;BME280;60444;43.534;-5.674;2022-12-24T12:16:20;101507.22;;;16.44;100.00
72438;BME280;60444;43.534;-5.674;2022-12-24T12:19:14;101512.44;;;16.48;100.00
72438;BME280;60444;43.534;-5.674;2022-12-24T12:21:43;101505.13;;;16.49;100.00
72438;BME280;60444;43.534;-5.674;2022-12-24T12:26:48;101507.38;;;16.56;100.00
72438;BME280;60444;43.534;-5.674;2022-12-24T12:29:26;101505.03;;;16.65;100.00
72438;BME280;60444;43.534;-5.674;2022-12-24T12:31:56;101521.81;;;16.73;100.00
72438;BME280;60444;43.534;-5.674;2022-12-24T12:34:30;101505.63;;;16.70;100.00
72438;BME280;60444;43.534;-5.674;2022-12-24T12:37:05;101490.22;;;16.69;100.00
72438;BME280;60444;43.534;-5.674;2022-12-24T12:39:34;101487.47;;;16.69;100.00
72438;BME280;60444;43.534;-5.674;2022-12-24T12:42:28;101497.44;;;16.84;100.00
72438;BME280;60444;43.534;-5.674;2022-12-24T12:50:13;101488.94;;;16.88;100.00
72438;BME280;60444;43.534;-5.674;2022-12-24T12:58:24;101463.47;;;16.88;100.00
72438;BME280;60444;43.534;-5.674;2022-12-24T13:00:52;101473.13;;;16.93;100.00
72438;BME280;60444;43.534;-5.674;2022-12-24T13:11:44;101472.94;;;16.82;100.00
72438;BME280;60444;43.534;-5.674;2022-12-24T13:14:39;101458.88;;;16.74;100.00
72438;BME280;60444;43.534;-5.674;2022-12-24T13:22:23;101459.47;;;16.79;100.00
72438;BME280;60444;43.534;-5.674;2022-12-24T13:24:51;101471.84;;;16.85;100.00
72438;BME280;60444;43.534;-5.674;2022-12-24T13:30:13;101475.56;;;16.84;100.00
72438;BME280;60444;43.534;-5.674;2022-12-24T13:32:53;101467.59;;;16.81;100.00
72438;BME280;60444;43.534;-5.674;2022-12-24T13:37:45;101432.25;;;16.64;100.00
72438;BME280;60444;43.534;-5.674;2022-12-24T13:50:54;101450.97;;;16.55;100.00
72438;BME280;60444;43.534;-5.674;2022-12-24T13:53:33;101445.94;;;16.49;100.00
72438;BME280;60444;43.534;-5.674;2022-12-24T13:58:43;101435.53;;;16.40;100.00
72438;BME280;60444;43.534;-5.674;2022-12-24T14:01:15;101433.09;;;16.36;100.00
72438;BME280;60444;43.534;-5.674;2022-12-24T14:03:46;101438.84;;;16.31;100.00
72438;BME280;60444;43.534;-5.674;2022-12-24T14:06:36;101441.75;;;16.28;100.00
72438;BME280;60444;43.534;-5.674;2022-12-24T14:09:13;101412.59;;;16.15;100.00
72438;BME280;60444;43.534;-5.674;2022-12-24T14:14:39;101447.31;;;16.27;100.00
72438;BME280;60444;43.534;-5.674;2022-12-24T14:19:59;101432.97;;;16.23;100.00
72438;BME280;60444;43.534;-5.674;2022-12-24T14:22:32;101436.50;;;16.25;100.00
72438;BME280;60444;43.534;-5.674;2022-12-24T14:25:11;101433.19;;;16.20;100.00